createdAt,value
2023-01-28T00:03:53.602Z,3.31
2023-01-28T00:14:15.103Z,3.25
2023-01-28T00:24:36.440Z,3.21
2023-01-28T00:34:57.796Z,3.14
2023-01-28T00:45:19.179Z,3.12
2023-01-28T00:55:40.659Z,3.13
2023-01-28T01:06:02.029Z,3.06
2023-01-28T01:16:24.619Z,3.06
2023-01-28T01:26:46.039Z,3.00
2023-01-28T01:37:08.502Z,2.96
2023-01-28T01:47:40.244Z,2.92
2023-01-28T01:58:04.639Z,2.91
2023-01-28T02:08:26.013Z,2.87
2023-01-28T02:18:47.393Z,2.80
2023-01-28T02:29:27.560Z,2.71
2023-01-28T02:39:51.772Z,2.66
2023-01-28T02:50:16.116Z,2.63
2023-01-28T03:00:43.690Z,2.53
2023-01-28T03:11:23.746Z,2.42
2023-01-28T03:22:04.300Z,2.36
2023-01-28T03:32:44.530Z,2.26
2023-01-28T03:43:05.884Z,2.21
2023-01-28T03:53:28.172Z,2.20
2023-01-28T04:03:49.567Z,2.11
2023-01-28T04:14:10.932Z,1.95
2023-01-28T04:24:32.285Z,1.85
2023-01-28T04:34:53.661Z,1.71
2023-01-28T04:45:15.455Z,1.64
2023-01-28T04:55:37.052Z,1.56
2023-01-28T05:05:58.475Z,1.68
2023-01-28T05:16:19.856Z,1.60
2023-01-28T05:26:41.395Z,1.49
2023-01-28T05:37:02.852Z,1.45
2023-01-28T05:47:24.206Z,1.40
2023-01-28T05:57:45.555Z,1.36
2023-01-28T06:08:07.254Z,1.31
2023-01-28T06:18:28.613Z,1.25
2023-01-28T06:28:50.072Z,1.21
2023-01-28T06:39:11.497Z,1.17
2023-01-28T06:49:32.829Z,1.08
2023-01-28T06:59:54.176Z,1.11
2023-01-28T07:10:16.092Z,1.07
2023-01-28T07:20:37.751Z,1.07
2023-01-28T07:30:59.335Z,1.07
2023-01-28T07:41:20.788Z,1.07
2023-01-28T07:51:42.129Z,1.03
2023-01-28T08:02:03.618Z,1.03
2023-01-28T08:12:24.983Z,1.07
2023-01-28T08:22:46.344Z,0.88
2023-01-28T08:33:09.001Z,0.87
2023-01-28T08:43:30.367Z,0.94
2023-01-28T08:53:51.719Z,1.09
2023-01-28T09:04:13.076Z,1.29
2023-01-28T09:14:34.459Z,1.58
2023-01-28T09:24:55.803Z,1.78
2023-01-28T09:35:18.033Z,1.95
2023-01-28T09:45:39.375Z,2.14
2023-01-28T09:56:05.729Z,2.04
2023-01-28T10:06:42.542Z,2.11
2023-01-28T10:17:24.164Z,2.20
2023-01-28T10:27:46.928Z,2.30
2023-01-28T10:38:10.478Z,2.61
2023-01-28T10:48:38.488Z,2.80
2023-01-28T10:59:00.577Z,2.81
2023-01-28T11:09:22.771Z,2.85
2023-01-28T11:19:44.609Z,2.95
2023-01-28T11:30:07.863Z,2.98
2023-01-28T11:40:29.450Z,3.12
2023-01-28T11:50:54.341Z,3.33
2023-01-28T12:01:31.123Z,3.67
2023-01-28T12:12:14.134Z,4.08
2023-01-28T12:22:44.649Z,4.28
2023-01-28T12:33:12.141Z,4.36
2023-01-28T12:43:33.466Z,4.36
2023-01-28T12:53:54.835Z,4.42
2023-01-28T13:04:25.258Z,4.50
2023-01-28T13:14:47.549Z,4.44
2023-01-28T13:25:18.468Z,4.32
2023-01-28T13:35:40.606Z,4.55
2023-01-28T13:46:03.828Z,4.62
2023-01-28T13:56:26.590Z,4.77
2023-01-28T14:06:59.176Z,4.86
2023-01-28T14:17:26.715Z,4.88
2023-01-28T14:27:52.544Z,4.95
2023-01-28T14:38:16.228Z,4.95
2023-01-28T14:48:45.664Z,4.99
2023-01-28T14:59:25.116Z,4.99
2023-01-28T15:09:46.795Z,4.97
2023-01-28T15:20:08.814Z,4.97
2023-01-28T15:30:31.948Z,5.00
2023-01-28T15:40:56.411Z,5.01
2023-01-28T15:51:20.104Z,4.93
2023-01-28T16:01:41.883Z,4.76
2023-01-28T16:12:12.327Z,4.73
2023-01-28T16:22:42.175Z,4.79
2023-01-28T16:33:03.575Z,4.78
2023-01-28T16:43:24.961Z,4.74
2023-01-28T16:53:47.658Z,4.75
2023-01-28T17:04:11.988Z,4.78
2023-01-28T17:14:34.104Z,4.75
2023-01-28T17:24:55.477Z,4.75
2023-01-28T17:35:17.200Z,4.74
2023-01-28T17:45:38.833Z,4.71
2023-01-28T17:56:00.276Z,4.71
2023-01-28T18:06:22.111Z,4.73
2023-01-28T18:16:43.886Z,4.69
2023-01-28T18:27:05.254Z,4.65
2023-01-28T18:37:26.822Z,4.61
2023-01-28T18:47:48.200Z,4.52
2023-01-28T18:58:09.756Z,4.53
2023-01-28T19:08:32.395Z,4.50
2023-01-28T19:18:55.203Z,4.53
2023-01-28T19:29:16.598Z,4.44
2023-01-28T19:39:37.996Z,4.35
2023-01-28T19:49:59.877Z,4.31
2023-01-28T20:00:21.264Z,4.39
2023-01-28T20:10:42.619Z,4.44
2023-01-28T20:21:06.910Z,4.45
2023-01-28T20:31:28.483Z,4.46
2023-01-28T20:41:50.061Z,4.49
2023-01-28T20:52:11.594Z,4.46
2023-01-28T21:02:35.488Z,4.47
2023-01-28T21:12:56.892Z,4.48
2023-01-28T21:23:18.323Z,4.48
2023-01-28T21:33:39.712Z,4.49
2023-01-28T21:44:01.187Z,4.43
2023-01-28T21:54:22.523Z,4.41
2023-01-28T22:04:46.281Z,4.32
2023-01-28T22:15:07.923Z,4.31
2023-01-28T22:25:29.351Z,4.30
2023-01-28T22:35:50.834Z,4.34
2023-01-28T22:46:12.483Z,4.30
2023-01-28T22:56:33.904Z,4.23
2023-01-28T23:06:55.291Z,4.15
2023-01-28T23:17:35.320Z,4.07
2023-01-28T23:27:56.770Z,3.95
2023-01-28T23:38:18.277Z,3.91
2023-01-28T23:48:39.780Z,3.86
2023-01-28T23:59:02.481Z,3.87
